Costigan, Maine
Current Conditions -  °F | °C
As of 3:53 AM on Thursday 23 Oct 2014 (Local Time) from KBGR Reporting Station
Overcast Overcast  
Wind Chill: 40°   Ceiling: 900
Heat Index: 47°   Visibility: 10mi
Dew Point: 45°   Wind: 17mph
Humidity: 93%   Direction: 40°NE
Pressure: 30"   Gusts: 26mph
Location:  45.01°N, 68.64°W
Report Text: KBGR 230753Z 04015G23KT 10SM OVC009 08/07 A3000 RMK AO2 RAE0659B29E42 CIG 006V013 SLP159 P0000 T00830072
Loading
Personal Weather Stations






























Interactive Weather Map
Tropical Storm Tracking
New forecast layout! Learn more

10-Day Weather Forecast

Advertisements
Track Severe Weather on mobile